Shelby, Texas
Current Conditions -  °F | °C
As of 11:55 AM on Tuesday 21 Oct 2014 (Local Time) from K3T5 Reporting Station
Haze Haze  
Wind Chill: 76°   Ceiling: Unl
Heat Index: 78°   Visibility: 5mi
Dew Point: 59°   Wind: 5mph
Humidity: 56%   Direction: 100°E
Pressure: 30.06"   Gusts: NA
Location:  29.8816°N, 96.6536°W
Report Text: K3T5 211655Z AUTO 10004KT 5SM HZ CLR 25/15 A3006 RMK AO2 T02450151
Loading
Personal Weather Stations






























Interactive Weather Map
Tropical Storm Tracking
New forecast layout! Learn more

10-Day Weather Forecast

Advertisements
Track Severe Weather on mobile